Time;durP1;ratioP1;P1;durP2;ratioP2;P2;SDS_P1;SDS_P2;PMS_P1;PMS_P2;Temp;Humidity;BMP_temperature;BMP_pressure;BME280_temperature;BME280_humidity;BME280_pressure;Samples;Min_cycle;Max_cycle;Signal;HPM_P1;HPM_P2
2022/12/22 03:26:35;;;;;;;11.93;7.23;;;;;;;3.40;96.04;99971.11;1768809;79;21127;-79
2022/12/22 03:29:02;;;;;;;21.27;10.90;;;;;;;3.40;95.90;99971.11;1773361;79;21076;-79
2022/12/22 03:31:29;;;;;;;12.63;6.60;;;;;;;3.40;95.86;99963.34;1763249;80;21027;-84
2022/12/22 03:33:56;;;;;;;8.13;5.37;;;;;;;3.41;95.78;99963.33;1771445;80;21493;-79
2022/12/22 03:36:23;;;;;;;8.70;5.30;;;;;;;3.40;95.71;99961.59;1751329;80;20984;-79
2022/12/22 03:38:50;;;;;;;8.00;5.40;;;;;;;3.39;95.64;99954.72;1773977;79;21119;-79
2022/12/22 03:46:49;;;;;;;8.57;4.90;;;;;;;3.39;95.62;99946.09;1759401;80;20996;-79
2022/12/22 03:49:18;;;;;;;6.93;4.87;;;;;;;3.35;95.52;99942.26;1771279;80;21624;-79
2022/12/22 03:51:47;;;;;;;7.67;4.90;;;;;;;3.33;95.40;99946.59;1752587;80;21092;-79
2022/12/22 03:54:18;;;;;;;8.53;5.03;;;;;;;3.30;95.34;99944.50;1776201;79;20988;-79
2022/12/22 03:56:46;;;;;;;7.40;5.33;;;;;;;3.27;95.40;99944.52;1762951;79;21719;-80
2022/12/22 03:59:14;;;;;;;7.60;4.60;;;;;;;3.26;95.45;99949.29;1774745;79;20973;-80
2022/12/22 04:01:51;;;;;;;7.90;4.70;;;;;;;3.23;95.50;99945.01;1768862;80;20983;-81
2022/12/22 04:04:22;;;;;;;5.63;4.40;;;;;;;3.21;95.52;99934.25;1769294;79;21589;-79
2022/12/22 04:06:50;;;;;;;6.43;4.17;;;;;;;3.21;95.64;99938.98;1777766;80;21489;-79
2022/12/22 04:09:17;;;;;;;7.50;4.50;;;;;;;3.21;95.67;99942.02;1761805;79;21018;-80
2022/12/22 04:14:30;;;;;;;6.30;4.33;;;;;;;3.18;95.59;99941.63;1759836;79;21512;-79
2022/12/22 04:16:57;;;;;;;7.50;4.53;;;;;;;3.16;95.61;99930.87;1772499;79;21178;-83
2022/12/22 04:19:24;;;;;;;6.97;4.47;;;;;;;3.16;95.77;99933.45;1698553;83;21537;-80
2022/12/22 04:21:51;;;;;;;7.37;4.70;;;;;;;3.17;95.90;99933.45;1719342;82;21015;-80
2022/12/22 04:24:18;;;;;;;6.87;4.60;;;;;;;3.19;95.99;99933.41;1720152;82;21280;-79
2022/12/22 04:26:45;;;;;;;7.43;5.40;;;;;;;3.20;95.95;99940.32;1719380;83;21005;-80
2022/12/22 04:29:12;;;;;;;7.23;4.70;;;;;;;3.20;96.04;99937.29;1716714;83;21939;-79
2022/12/22 04:31:39;;;;;;;6.93;4.60;;;;;;;3.25;96.16;99926.42;1713746;82;20981;-79
2022/12/22 04:34:06;;;;;;;6.20;4.60;;;;;;;3.28;96.17;99924.23;1719292;83;20996;-81
2022/12/22 04:36:33;;;;;;;6.70;4.70;;;;;;;3.30;96.15;99919.89;1717020;82;20988;-80
2022/12/22 04:39:00;;;;;;;8.30;5.33;;;;;;;3.33;96.29;99910.78;1698434;82;21094;-79
2022/12/22 04:41:27;;;;;;;6.63;4.87;;;;;;;3.36;96.28;99908.14;1690275;83;21146;-79
2022/12/22 04:43:54;;;;;;;11.33;7.70;;;;;;;3.38;96.24;99902.91;1714112;82;21048;-82
2022/12/22 04:46:21;;;;;;;10.33;7.00;;;;;;;3.40;96.20;99903.75;1695277;83;21469;-79
2022/12/22 04:48:48;;;;;;;10.80;5.77;;;;;;;3.39;96.15;99896.43;1704055;82;21066;-79
2022/12/22 04:51:15;;;;;;;10.67;5.73;;;;;;;3.39;96.08;99887.36;1706976;82;21484;-79
2022/12/22 04:53:42;;;;;;;8.63;5.50;;;;;;;3.38;95.84;99891.26;1716781;82;21118;-80
2022/12/22 04:56:10;;;;;;;8.33;5.47;;;;;;;3.33;95.76;99888.77;1690258;83;21521;-80
2022/12/22 04:58:37;;;;;;;10.90;7.30;;;;;;;3.29;95.65;99890.52;1706007;83;21027;-83
2022/12/22 05:01:12;;;;;;;7.47;5.67;;;;;;;3.23;95.60;99890.62;1699302;82;21032;-81
2022/12/22 05:03:39;;;;;;;6.47;4.93;;;;;;;3.23;95.81;99897.09;1700053;83;21007;-82
2022/12/22 05:06:06;;;;;;;7.20;4.77;;;;;;;3.22;96.00;99882.45;1713862;83;21299;-80
2022/12/22 05:08:34;;;;;;;9.13;5.50;;;;;;;3.23;96.01;99875.52;1733620;82;21059;-78
2022/12/22 05:11:01;;;;;;;9.90;5.83;;;;;;;3.23;96.10;99874.23;1708095;82;21026;-79
2022/12/22 05:13:30;;;;;;;6.03;4.57;;;;;;;3.24;96.27;99866.86;1694283;82;21028;-79
2022/12/22 05:16:13;;;;;;;6.87;4.87;;;;;;;3.26;96.46;99868.55;1730929;82;21063;-78
2022/12/22 05:18:43;;;;;;;6.43;4.40;;;;;;;3.29;96.60;99865.91;1705508;82;21962;-80
2022/12/22 05:21:19;;;;;;;6.43;4.50;;;;;;;3.30;96.36;99872.83;1710003;82;21011;-79
2022/12/22 05:23:47;;;;;;;5.90;4.20;;;;;;;3.29;96.34;99871.09;1707966;83;21044;-79
2022/12/22 05:26:16;;;;;;;6.63;4.40;;;;;;;3.27;96.28;99867.70;1712020;82;21000;-81
2022/12/22 05:28:45;;;;;;;6.27;4.00;;;;;;;3.27;96.37;99866.41;1713396;82;21018;-79
2022/12/22 05:31:23;;;;;;;6.43;4.60;;;;;;;3.30;96.52;99874.56;1721333;81;21935;-79
2022/12/22 05:33:50;;;;;;;6.50;4.27;;;;;;;3.32;96.70;99875.38;1709834;82;21474;-78
2022/12/22 05:36:17;;;;;;;7.03;4.53;;;;;;;3.35;96.64;99875.32;1691119;83;20993;-79
2022/12/22 05:38:44;;;;;;;8.10;5.47;;;;;;;3.36;96.77;99864.09;1708974;83;21513;-78
2022/12/22 05:41:11;;;;;;;8.63;5.10;;;;;;;3.40;96.81;99862.30;1691060;83;21008;-78
2022/12/22 05:43:38;;;;;;;7.17;5.13;;;;;;;3.43;97.02;99859.22;1699510;83;21134;-78
2022/12/22 05:46:09;;;;;;;8.37;4.80;;;;;;;3.47;97.15;99859.59;1711455;83;21020;-79
2022/12/22 05:48:36;;;;;;;6.75;4.85;;;;;;;3.52;97.17;99855.20;1704294;83;21002;-78
2022/12/22 05:51:04;;;;;;;8.93;6.07;;;;;;;3.58;97.18;99855.08;1691402;82;21515;-80
2022/12/22 05:53:30;;;;;;;6.67;5.07;;;;;;;3.63;97.19;99841.17;1710844;83;21047;-79
2022/12/22 05:56:01;;;;;;;9.10;5.23;;;;;;;3.66;97.11;99835.94;1711150;83;21261;-82
2022/12/22 05:58:28;;;;;;;7.60;5.70;;;;;;;3.68;97.04;99833.73;1703938;82;21034;-79
2022/12/22 06:00:59;;;;;;;10.10;6.03;;;;;;;3.71;97.08;99827.19;1697369;83;21040;-79
2022/12/22 06:03:27;;;;;;;10.63;6.97;;;;;;;3.76;97.18;99833.16;1706733;83;21084;-77
2022/12/22 06:05:54;;;;;;;8.07;6.00;;;;;;;3.81;97.28;99831.78;1696464;83;21060;-78
2022/12/22 06:08:22;;;;;;;9.87;5.53;;;;;;;3.85;97.29;99834.72;1719231;82;21192;-79
2022/12/22 06:10:50;;;;;;;8.10;5.80;;;;;;;3.91;97.30;99833.78;1735132;82;20980;-78
2022/12/22 06:13:17;;;;;;;11.53;7.10;;;;;;;3.94;97.36;99829.38;1731362;82;21014;-77
2022/12/22 06:15:44;;;;;;;9.53;5.37;;;;;;;4.00;97.51;99826.66;1729627;82;21008;-75
2022/12/22 06:18:11;;;;;;;7.77;5.23;;;;;;;4.08;97.60;99838.19;1733195;82;21625;-83
2022/12/22 06:20:38;;;;;;;8.70;5.70;;;;;;;4.13;97.68;99823.81;1726323;82;21335;-80
2022/12/22 06:23:05;;;;;;;8.90;5.40;;;;;;;4.18;97.67;99825.43;1725031;82;21070;-76
2022/12/22 06:25:32;;;;;;;7.37;5.47;;;;;;;4.23;97.63;99829.23;1729022;82;21030;-79
2022/12/22 06:28:00;;;;;;;9.67;6.13;;;;;;;4.27;97.65;99829.61;1735297;82;21043;-87
2022/12/22 06:30:27;;;;;;;12.63;7.43;;;;;;;4.29;97.58;99834.30;1734910;82;21519;-77
2022/12/22 06:32:54;;;;;;;10.70;6.23;;;;;;;4.32;97.52;99836.82;1732249;82;21145;-85
2022/12/22 06:35:21;;;;;;;10.87;6.70;;;;;;;4.33;97.56;99822.14;1729423;82;21050;-77
2022/12/22 06:37:47;;;;;;;9.73;6.13;;;;;;;4.35;97.60;99821.22;1724190;82;21089;-82
2022/12/22 06:40:14;;;;;;;8.10;5.60;;;;;;;4.38;97.62;99808.19;1725434;82;21014;-82
2022/12/22 06:45:27;;;;;;;7.70;5.30;;;;;;;4.38;97.17;99812.48;1724907;82;21322;-81
2022/12/22 06:47:54;;;;;;;6.67;5.23;;;;;;;4.36;97.04;99802.16;1727702;82;21464;-82
2022/12/22 06:50:21;;;;;;;5.40;4.83;;;;;;;4.34;97.02;99800.03;1727902;81;21683;-84
2022/12/22 06:52:48;;;;;;;7.57;4.80;;;;;;;4.35;97.04;99796.98;1727609;82;21057;-85
2022/12/22 06:55:15;;;;;;;7.63;4.97;;;;;;;4.33;97.03;99787.96;1728592;81;21055;-84
2022/12/22 06:57:41;;;;;;;7.27;5.53;;;;;;;4.33;97.14;99796.19;1725388;82;22425;-83
2022/12/22 07:00:10;;;;;;;6.87;5.20;;;;;;;4.34;97.30;99791.41;1730645;81;21522;-80
2022/12/22 07:02:37;;;;;;;7.93;5.93;;;;;;;4.36;97.42;99797.42;1702982;82;21697;-81
2022/12/22 07:05:05;;;;;;;10.07;6.07;;;;;;;4.38;97.58;99788.72;1709769;82;21061;-81
2022/12/22 07:07:32;;;;;;;10.83;6.53;;;;;;;4.42;97.83;99794.23;1711921;83;21569;-83
2022/12/22 07:09:59;;;;;;;25.77;16.33;;;;;;;4.52;98.17;99792.73;1709588;82;21127;-81
2022/12/22 07:12:27;;;;;;;23.27;11.63;;;;;;;4.58;98.23;99788.28;1704191;83;21088;-79
2022/12/22 07:14:54;;;;;;;25.60;11.67;;;;;;;4.66;98.35;99776.44;1702725;83;21036;-81
2022/12/22 07:17:21;;;;;;;28.23;12.83;;;;;;;4.73;98.37;99773.23;1698412;83;21036;-80
2022/12/22 07:19:48;;;;;;;128.67;47.27;;;;;;;4.78;98.29;99779.19;1703002;83;21072;-80
2022/12/22 07:22:15;;;;;;;170.03;61.20;;;;;;;4.84;98.26;99776.44;1707635;83;21134;-81
2022/12/22 07:24:42;;;;;;;230.57;82.27;;;;;;;4.88;98.20;99767.70;1698427;83;21073;-81
2022/12/22 07:27:09;;;;;;;76.47;27.17;;;;;;;4.94;98.09;99770.59;1698511;83;21500;-74
2022/12/22 07:29:37;;;;;;;46.30;18.57;;;;;;;4.97;98.04;99760.98;1701336;83;20921;-75
2022/12/22 07:32:05;;;;;;;54.20;18.90;;;;;;;5.00;98.00;99762.64;1699876;83;21546;-82
2022/12/22 07:34:32;;;;;;;267.80;78.77;;;;;;;5.03;98.03;99766.02;1702294;83;22097;-80
2022/12/22 07:36:59;;;;;;;380.30;115.17;;;;;;;5.08;98.03;99751.17;1705664;83;21084;-75
2022/12/22 07:39:26;;;;;;;232.53;66.17;;;;;;;5.13;98.06;99754.97;1702927;83;21067;-80
2022/12/22 07:44:38;;;;;;;89.43;27.07;;;;;;;5.20;97.98;99752.60;1705692;83;21036;-78
2022/12/22 07:47:05;;;;;;;56.40;19.10;;;;;;;5.25;97.97;99739.50;1700219;83;21926;-77
2022/12/22 07:52:18;;;;;;;59.63;18.90;;;;;;;5.34;98.00;99734.06;1705172;83;21024;-80
2022/12/22 07:54:45;;;;;;;65.20;19.93;;;;;;;5.39;97.92;99715.30;1701050;83;21033;-84
2022/12/22 07:57:12;;;;;;;49.00;17.67;;;;;;;5.44;97.89;99727.73;1701904;83;21779;-79
2022/12/22 07:59:39;;;;;;;63.53;19.30;;;;;;;5.48;97.78;99725.89;1697531;83;21143;-75
2022/12/22 08:02:09;;;;;;;91.07;31.43;;;;;;;5.50;97.69;99720.22;1698447;83;21095;-78
2022/12/22 08:04:36;;;;;;;;;;;;;;;5.54;97.71;99713.60;1709456;83;21024;-73
2022/12/22 08:07:03;;;;;;;89.37;26.10;;;;;;;5.60;97.71;99713.88;1701255;83;20826;-77
2022/12/22 08:09:30;;;;;;;41.33;16.40;;;;;;;5.64;97.73;99716.78;1700560;83;21495;-83
2022/12/22 08:11:57;;;;;;;35.30;14.37;;;;;;;5.69;97.66;99710.17;1700765;83;21666;-77
2022/12/22 08:14:24;;;;;;;30.03;12.93;;;;;;;5.72;97.54;99707.48;1698404;83;21477;-78
2022/12/22 08:16:51;;;;;;;28.40;12.90;;;;;;;5.77;97.45;99706.91;1697705;83;21084;-78
2022/12/22 08:19:18;;;;;;;19.73;10.60;;;;;;;5.83;97.47;99701.97;1706469;83;21510;-76
2022/12/22 08:21:45;;;;;;;17.47;10.43;;;;;;;5.89;97.30;99700.49;1711154;83;21470;-73
2022/12/22 08:24:12;;;;;;;17.73;10.20;;;;;;;5.93;97.27;99702.09;1706787;83;22019;-76
2022/12/22 08:26:43;;;;;;;16.03;9.27;;;;;;;5.96;97.18;99704.20;1703203;82;21025;-79
2022/12/22 08:29:37;;;;;;;21.57;10.97;;;;;;;5.98;97.06;99694.59;1701745;83;21037;-71
2022/12/22 08:32:04;;;;;;;14.43;9.40;;;;;;;6.01;96.91;99695.83;1696326;83;21024;-76
2022/12/22 08:34:31;;;;;;;14.10;9.60;;;;;;;6.06;96.88;99688.32;1706038;82;21489;-77
2022/12/22 08:37:01;;;;;;;14.00;9.33;;;;;;;6.08;96.75;99689.13;1710694;83;21121;-79
2022/12/22 08:39:32;;;;;;;16.60;9.60;;;;;;;6.10;96.82;99685.59;1708052;82;21031;-80
2022/12/22 08:42:00;;;;;;;13.85;9.50;;;;;;;6.13;96.68;99684.19;1702979;83;21056;-79
2022/12/22 08:44:29;;;;;;;28.03;14.67;;;;;;;6.15;96.63;99675.90;1709686;83;21028;-79
2022/12/22 08:46:58;;;;;;;42.63;18.80;;;;;;;6.19;96.56;99675.34;1704264;83;21091;-79
2022/12/22 08:49:26;;;;;;;32.53;14.17;;;;;;;6.23;96.49;99672.58;1707450;83;22377;-77
2022/12/22 08:51:53;;;;;;;20.67;11.67;;;;;;;6.28;96.46;99678.11;1705034;83;22065;-79
2022/12/22 08:54:21;;;;;;;20.47;10.53;;;;;;;6.31;96.36;99672.35;1703524;83;21020;-74
2022/12/22 08:56:48;;;;;;;23.90;11.27;;;;;;;6.34;96.25;99671.41;1701074;83;21040;-81
2022/12/22 08:59:16;;;;;;;20.97;10.77;;;;;;;6.37;96.22;99678.66;1704812;82;21032;-86
2022/12/22 09:01:49;;;;;;;28.13;11.87;;;;;;;6.40;96.12;99668.19;1700369;82;21120;-84
2022/12/22 09:04:18;;;;;;;17.52;9.18;;;;;;;6.42;96.05;99668.96;1704864;83;21409;-78
2022/12/22 09:06:46;;;;;;;23.33;11.53;;;;;;;6.46;96.07;99669.73;1702819;83;21092;-79
2022/12/22 09:09:15;;;;;;;19.13;10.50;;;;;;;6.48;95.93;99660.98;1703857;83;21051;-77
2022/12/22 09:11:42;;;;;;;13.27;8.97;;;;;;;6.48;95.78;99662.28;1704364;83;21170;-75
2022/12/22 09:14:10;;;;;;;12.97;8.67;;;;;;;6.49;95.67;99656.63;1705894;83;21135;-72
2022/12/22 09:16:38;;;;;;;15.47;9.83;;;;;;;6.51;95.49;99666.97;1707741;83;21016;-73
2022/12/22 09:19:05;;;;;;;45.10;20.83;;;;;;;6.51;95.38;99648.74;1701405;83;21071;-76
2022/12/22 09:21:33;;;;;;;26.00;12.97;;;;;;;6.51;95.36;99644.38;1702025;83;21037;-73
2022/12/22 09:24:00;;;;;;;16.77;9.03;;;;;;;6.55;95.31;99649.06;1702412;83;21028;-74
2022/12/22 09:26:28;;;;;;;17.43;10.37;;;;;;;6.56;95.20;99643.78;1701112;83;21130;-74
2022/12/22 09:28:56;;;;;;;17.33;10.00;;;;;;;6.58;95.21;99639.84;1701339;83;21483;-74
2022/12/22 09:31:25;;;;;;;14.33;9.40;;;;;;;6.59;95.11;99636.33;1701719;83;21020;-74
2022/12/22 09:33:52;;;;;;;13.87;8.83;;;;;;;6.61;95.10;99634.08;1706231;83;21017;-83
2022/12/22 09:36:24;;;;;;;15.77;8.73;;;;;;;6.64;94.98;99637.03;1701823;83;21271;-79
2022/12/22 09:38:51;;;;;;;14.43;8.77;;;;;;;6.64;94.88;99627.91;1703376;83;21125;-78
2022/12/22 09:41:43;;;;;;;13.50;9.50;;;;;;;6.66;94.88;99626.13;1706562;83;21075;-75
2022/12/22 09:44:34;;;;;;;18.03;12.53;;;;;;;6.71;94.86;99624.22;1703327;83;21138;-78
2022/12/22 09:47:05;;;;;;;34.60;18.83;;;;;;;6.73;94.71;99621.09;1700879;82;21102;-85
2022/12/22 09:49:32;;;;;;;75.77;33.57;;;;;;;6.77;94.59;99615.34;1712128;83;21029;-77
2022/12/22 09:52:02;;;;;;;58.60;23.23;;;;;;;6.80;94.54;99634.77;1705363;83;21126;-77
2022/12/22 09:54:30;;;;;;;31.60;12.88;;;;;;;6.83;94.49;99619.88;1708129;83;21027;-77
2022/12/22 09:56:57;;;;;;;20.47;10.00;;;;;;;6.89;94.42;99609.25;1704441;82;21095;-81
2022/12/22 09:59:29;;;;;;;30.17;11.57;;;;;;;6.94;94.43;99613.00;1702988;83;21557;-77
2022/12/22 10:02:22;;;;;;;24.53;10.90;;;;;;;7.00;94.29;99602.82;1705507;82;21952;-75
2022/12/22 10:05:37;;;;;;;23.20;11.27;;;;;;;7.05;94.27;99600.45;1696375;84;21332;-80
2022/12/22 10:08:14;;;;;;;74.97;29.33;;;;;;;7.12;94.17;99602.38;1697008;84;22233;-78
2022/12/22 10:10:41;;;;;;;106.07;38.33;;;;;;;7.22;94.17;99595.09;1696565;84;21092;-78
2022/12/22 10:13:16;;;;;;;77.33;28.30;;;;;;;7.29;94.15;99587.00;1696824;84;21059;-79
2022/12/22 10:15:44;;;;;;;27.47;12.90;;;;;;;7.37;93.99;99580.17;1696485;84;21446;-76
2022/12/22 10:18:20;;;;;;;22.87;11.30;;;;;;;7.48;94.04;99581.09;1693112;83;21127;-81
2022/12/22 10:21:05;;;;;;;18.90;10.47;;;;;;;7.54;93.72;99579.12;1696859;83;21038;-82
2022/12/22 10:23:37;;;;;;;13.40;8.73;;;;;;;7.62;93.59;99578.84;1695702;83;21027;-79
2022/12/22 10:26:25;;;;;;;12.77;8.63;;;;;;;7.81;93.50;99565.91;1697181;83;21491;-83
2022/12/22 10:29:09;;;;;;;13.63;8.97;;;;;;;8.00;93.47;99577.33;1695754;83;21090;-82
2022/12/22 10:31:56;;;;;;;11.97;8.20;;;;;;;8.08;93.06;99570.96;1696042;84;21105;-82
2022/12/22 10:34:23;;;;;;;15.07;8.13;;;;;;;8.16;92.92;99571.05;1696287;83;20959;-83
2022/12/22 10:36:53;;;;;;;9.67;6.90;;;;;;;8.19;92.68;99567.00;1697051;84;21062;-83
2022/12/22 10:40:23;;;;;;;9.70;6.60;;;;;;;8.21;92.51;99559.13;1696780;84;21079;-81
2022/12/22 10:42:54;;;;;;;10.77;6.93;;;;;;;8.20;92.44;99569.14;1695576;84;21488;-82
2022/12/22 10:45:27;;;;;;;8.93;6.47;;;;;;;8.20;92.38;99551.75;1696730;84;21616;-83
2022/12/22 10:47:56;;;;;;;9.90;6.60;;;;;;;8.16;92.15;99557.15;1699737;82;21392;-82
2022/12/22 10:50:23;;;;;;;7.93;6.27;;;;;;;8.14;92.25;99552.44;1695794;83;21030;-82
2022/12/22 10:52:56;;;;;;;10.23;6.67;;;;;;;8.05;91.98;99549.28;1696757;84;21091;-81
2022/12/22 10:55:28;;;;;;;9.47;6.03;;;;;;;8.02;91.95;99549.88;1696844;83;21023;-82
2022/12/22 10:58:09;;;;;;;8.73;6.20;;;;;;;7.98;91.84;99546.98;1696765;84;21120;-81
2022/12/22 11:00:37;;;;;;;9.43;5.80;;;;;;;7.95;91.67;99543.19;1695776;84;21051;-82
2022/12/22 11:03:06;;;;;;;8.20;6.03;;;;;;;7.92;91.69;99544.16;1703728;82;21052;-84
2022/12/22 11:05:34;;;;;;;8.20;5.60;;;;;;;7.90;91.54;99534.69;1702887;83;21550;-84
2022/12/22 11:08:17;;;;;;;22.10;12.47;;;;;;;7.89;91.56;99546.89;1704365;83;21092;-83
2022/12/22 11:10:50;;;;;;;29.33;15.67;;;;;;;7.87;91.34;99530.90;1703705;83;21060;-78
2022/12/22 11:13:39;;;;;;;15.57;8.57;;;;;;;7.86;91.27;99525.30;1703339;84;21048;-81
2022/12/22 11:16:32;;;;;;;12.90;7.43;;;;;;;7.85;91.17;99517.09;1704939;84;20989;-81
2022/12/22 11:19:51;;;;;;;7.77;5.37;;;;;;;7.85;91.12;99517.94;1703617;83;21533;-79
2022/12/22 11:22:37;;;;;;;7.93;5.73;;;;;;;7.84;91.05;99509.69;1704099;84;21095;-78
2022/12/22 11:25:25;;;;;;;9.30;5.77;;;;;;;7.85;91.01;99508.80;1704453;84;21045;-78
2022/12/22 11:28:17;;;;;;;8.33;5.60;;;;;;;7.83;91.06;99494.50;1766866;80;21061;-75
2022/12/22 11:31:10;;;;;;;16.50;9.17;;;;;;;7.81;91.04;99480.70;1771971;80;21053;-76
2022/12/22 11:33:46;;;;;;;51.53;24.67;;;;;;;7.80;90.99;99477.67;1761284;80;20908;-77
2022/12/22 11:36:30;;;;;;;19.03;8.53;;;;;;;7.80;90.94;99475.06;1757585;81;21011;-78
2022/12/22 11:39:08;;;;;;;15.43;7.10;;;;;;;7.81;90.95;99470.69;1759904;81;21924;-80
2022/12/22 11:42:03;;;;;;;11.50;6.20;;;;;;;7.82;90.95;99466.72;1756882;81;21011;-78
2022/12/22 11:44:54;;;;;;;7.93;5.37;;;;;;;7.82;90.86;99464.12;1761602;81;21356;-77
2022/12/22 11:47:32;;;;;;;6.87;4.00;;;;;;;7.85;90.86;99453.17;1760800;81;21018;-82
2022/12/22 11:50:21;;;;;;;5.97;3.73;;;;;;;7.86;90.78;99447.03;1728955;82;21485;-77
2022/12/22 11:53:14;;;;;;;11.50;7.13;;;;;;;7.86;90.85;99440.05;1697769;82;21061;-77
2022/12/22 11:55:45;;;;;;;8.50;4.43;;;;;;;7.86;90.86;99437.90;1712185;83;21032;-77
2022/12/22 11:58:42;;;;;;;5.90;3.77;;;;;;;7.85;90.72;99435.75;1708801;82;21463;-76
2022/12/22 12:01:32;;;;;;;5.77;3.73;;;;;;;7.92;90.80;99437.17;1703822;83;21095;-78
2022/12/22 12:04:28;;;;;;;14.68;6.17;;;;;;;8.03;90.77;99428.91;1705323;83;21178;-77
2022/12/22 12:07:13;;;;;;;13.70;5.93;;;;;;;8.08;90.69;99429.56;1706119;83;21069;-77
2022/12/22 12:10:03;;;;;;;9.70;4.87;;;;;;;8.14;90.60;99428.45;1706859;83;21335;-77
2022/12/22 12:13:03;;;;;;;10.50;5.37;;;;;;;8.17;90.47;99414.80;1703771;83;21118;-77
2022/12/22 12:15:47;;;;;;;7.53;3.77;;;;;;;8.23;90.48;99410.66;1706888;83;21827;-78
2022/12/22 12:18:41;;;;;;;6.37;3.47;;;;;;;8.28;90.34;99409.13;1765326;80;22343;-78
2022/12/22 12:21:20;;;;;;;5.27;3.53;;;;;;;8.30;90.14;99413.83;1771968;80;21923;-78
2022/12/22 12:24:29;;;;;;;4.50;3.50;;;;;;;8.27;89.99;99411.36;1773748;80;21012;-75
2022/12/22 12:27:42;;;;;;;4.27;2.83;;;;;;;8.24;89.97;99414.11;1764347;80;21464;-77
2022/12/22 12:30:18;;;;;;;5.23;3.07;;;;;;;8.17;89.84;99417.42;1763325;80;21322;-77
2022/12/22 12:33:02;;;;;;;4.63;3.50;;;;;;;8.09;89.82;99408.22;1767527;80;21037;-77
2022/12/22 12:35:49;;;;;;;12.03;6.93;;;;;;;8.04;89.90;99406.67;1768041;80;22357;-76
2022/12/22 12:38:47;;;;;;;12.00;6.53;;;;;;;8.00;89.90;99404.25;1769704;80;20998;-76
2022/12/22 12:41:32;;;;;;;10.07;5.10;;;;;;;7.98;89.95;99403.45;1771350;80;21512;-75
2022/12/22 12:44:00;;;;;;;7.77;4.33;;;;;;;7.97;90.02;99394.78;1766692;80;21058;-76
2022/12/22 12:46:53;;;;;;;8.20;4.30;;;;;;;8.02;90.12;99386.77;1770881;80;21061;-76
2022/12/22 12:49:41;;;;;;;6.37;4.30;;;;;;;8.08;90.10;99385.66;1764132;80;21128;-74
2022/12/22 12:52:10;;;;;;;5.93;3.33;;;;;;;8.13;90.07;99381.09;1773149;80;20991;-74
2022/12/22 12:54:46;;;;;;;4.90;3.00;;;;;;;8.22;90.04;99388.52;1770323;80;21015;-75
2022/12/22 12:57:29;;;;;;;7.07;4.77;;;;;;;8.30;89.96;99384.27;1765331;79;21073;-74
2022/12/22 12:59:58;;;;;;;38.50;17.20;;;;;;;8.38;89.94;99386.93;1748672;79;21553;-72
2022/12/22 13:02:38;;;;;;;33.30;12.43;;;;;;;8.62;89.98;99385.50;1767023;80;21050;-74
2022/12/22 13:05:13;;;;;;;18.32;8.38;;;;;;;8.87;89.90;99378.69;1770558;79;21046;-82
2022/12/22 13:08:08;;;;;;;10.00;5.50;;;;;;;9.08;89.70;99379.44;1770384;80;21687;-81
2022/12/22 13:10:49;;;;;;;9.93;5.93;;;;;;;9.26;89.55;99375.11;1772885;80;21011;-76
2022/12/22 13:13:32;;;;;;;14.87;7.67;;;;;;;9.48;89.31;99365.77;1775484;80;21018;-76
2022/12/22 13:16:04;;;;;;;28.63;13.77;;;;;;;9.56;89.00;99365.77;1776682;80;21073;-76
2022/12/22 13:18:40;;;;;;;19.17;8.40;;;;;;;9.64;88.65;99359.30;1769135;79;21057;-80
2022/12/22 13:21:21;;;;;;;18.37;7.33;;;;;;;9.66;88.41;99360.91;1772450;79;21354;-77
2022/12/22 13:24:06;;;;;;;12.43;5.87;;;;;;;9.68;88.31;99365.62;1769384;79;21038;-78
2022/12/22 13:26:37;;;;;;;7.85;4.83;;;;;;;9.61;87.88;99368.98;1768879;79;21050;-77
2022/12/22 13:29:24;;;;;;;7.27;4.30;;;;;;;9.55;87.80;99363.22;1773416;79;21120;-78
2022/12/22 13:32:00;;;;;;;6.70;4.17;;;;;;;9.51;87.58;99363.00;1772238;79;21046;-78
2022/12/22 13:34:59;;;;;;;11.27;7.20;;;;;;;9.46;87.47;99366.30;1773498;80;21010;-80
2022/12/22 13:37:28;;;;;;;9.30;5.55;;;;;;;9.38;87.57;99371.42;1740214;81;21083;-76
2022/12/22 13:40:12;;;;;;;6.03;4.28;;;;;;;9.32;87.50;99379.58;1764388;79;20995;-75
2022/12/22 13:42:55;;;;;;;5.30;4.10;;;;;;;9.26;87.49;99379.88;1775797;80;21918;-77
2022/12/22 13:45:47;;;;;;;6.47;3.67;;;;;;;9.17;87.52;99378.98;1768982;79;21026;-80
2022/12/22 13:48:45;;;;;;;5.60;3.47;;;;;;;9.09;87.53;99375.45;1770770;79;21078;-77
2022/12/22 13:51:25;;;;;;;7.37;3.87;;;;;;;9.02;87.56;99381.88;1774326;79;21429;-79
2022/12/22 13:53:59;;;;;;;7.47;3.90;;;;;;;8.94;87.70;99378.77;1773249;79;20995;-77
2022/12/22 13:56:38;;;;;;;5.33;3.13;;;;;;;8.88;87.77;99386.44;1771687;79;21101;-79
2022/12/22 13:59:13;;;;;;;5.90;3.37;;;;;;;8.81;87.79;99380.25;1768590;79;21026;-78
2022/12/22 14:01:51;;;;;;;7.63;4.83;;;;;;;8.75;87.92;99381.38;1768153;79;21046;-76
2022/12/22 14:04:17;;;;;;;8.80;4.50;;;;;;;8.72;88.05;99381.52;1770734;80;21039;-76
2022/12/22 14:06:45;;;;;;;8.27;4.33;;;;;;;8.64;87.98;99383.17;1766279;81;21027;-76
2022/12/22 14:09:22;;;;;;;7.63;4.53;;;;;;;8.58;88.02;99381.31;1768992;80;21149;-80
2022/12/22 14:11:57;;;;;;;7.03;4.40;;;;;;;8.54;88.11;99379.77;1765178;79;20991;-74
2022/12/22 14:14:29;;;;;;;5.63;3.83;;;;;;;8.48;88.29;99370.44;1767629;80;21014;-75
2022/12/22 14:16:59;;;;;;;6.03;3.87;;;;;;;8.46;88.39;99373.11;1768955;79;21022;-74
2022/12/22 14:19:36;;;;;;;8.18;3.87;;;;;;;8.44;88.44;99374.09;1766886;81;21022;-73
2022/12/22 14:22:14;;;;;;;6.30;3.93;;;;;;;8.41;88.53;99375.08;1766054;80;22132;-75
2022/12/22 14:24:56;;;;;;;6.83;3.80;;;;;;;8.37;88.55;99370.89;1755872;80;37555;-74
2022/12/22 14:27:48;;;;;;;5.60;3.83;;;;;;;8.35;88.66;99377.94;1766798;81;21030;-77
2022/12/22 14:30:25;;;;;;;6.20;3.50;;;;;;;8.33;88.72;99373.69;1742407;82;21019;-75
2022/12/22 14:32:54;;;;;;;11.87;5.80;;;;;;;8.29;88.70;99366.46;1696299;83;21025;-76
2022/12/22 14:35:27;;;;;;;115.90;30.10;;;;;;;8.25;88.77;99362.27;1687006;84;21177;-74
2022/12/22 14:38:23;;;;;;;110.07;37.60;;;;;;;8.23;88.86;99359.75;1685385;84;21072;-76
2022/12/22 14:40:53;;;;;;;42.33;13.43;;;;;;;8.22;89.09;99364.55;1710842;82;21024;-75
2022/12/22 14:43:28;;;;;;;19.82;7.65;;;;;;;8.23;89.40;99357.57;1703025;83;21016;-76
2022/12/22 14:46:07;;;;;;;9.70;4.87;;;;;;;8.25;89.72;99352.67;1701941;83;21129;-77
2022/12/22 14:48:39;;;;;;;11.78;6.80;;;;;;;8.30;89.81;99359.47;1705091;83;21094;-75
2022/12/22 14:51:07;;;;;;;9.60;4.97;;;;;;;8.33;89.94;99356.72;1723453;83;21647;-76
2022/12/22 14:53:40;;;;;;;12.27;5.80;;;;;;;8.34;89.95;99359.70;1699802;82;21029;-84
2022/12/22 14:56:13;;;;;;;6.33;3.60;;;;;;;8.35;90.09;99357.51;1697648;83;21446;-81
2022/12/22 14:58:44;;;;;;;5.33;3.07;;;;;;;8.37;90.22;99355.66;1699445;83;21534;-77
2022/12/22 15:01:22;;;;;;;6.87;3.67;;;;;;;8.38;90.28;99361.28;1729742;82;22450;-79
2022/12/22 15:04:03;;;;;;;4.57;3.70;;;;;;;8.38;90.21;99363.43;1725378;82;21019;-78
2022/12/22 15:06:38;;;;;;;7.03;4.70;;;;;;;8.39;90.27;99364.30;1747365;80;21114;-75
2022/12/22 15:09:10;;;;;;;9.87;5.73;;;;;;;8.40;90.27;99363.41;1766896;80;21003;-83
2022/12/22 15:11:43;;;;;;;6.20;4.10;;;;;;;8.40;90.33;99368.63;1768425;79;21059;-80
2022/12/22 15:14:21;;;;;;;7.43;4.87;;;;;;;8.39;90.26;99359.92;1766200;80;22041;-81
2022/12/22 15:16:49;;;;;;;6.90;4.07;;;;;;;8.41;90.28;99365.09;1764971;80;21051;-81
2022/12/22 15:19:21;;;;;;;5.50;3.87;;;;;;;8.41;90.17;99365.94;1766445;80;21018;-81
2022/12/22 15:21:48;;;;;;;15.10;7.43;;;;;;;8.41;90.20;99359.41;1765433;79;20991;-84
2022/12/22 15:24:17;;;;;;;12.80;5.40;;;;;;;8.42;90.22;99373.30;1758756;81;21475;-79
2022/12/22 15:26:45;;;;;;;13.40;5.60;;;;;;;8.43;90.18;99370.64;1766620;79;22017;-78
2022/12/22 15:29:13;;;;;;;11.20;5.00;;;;;;;8.43;90.09;99369.80;1766128;80;21042;-78
2022/12/22 15:31:42;;;;;;;14.20;5.47;;;;;;;8.43;90.07;99373.25;1768671;80;20994;-80
2022/12/22 15:34:26;;;;;;;14.73;5.37;;;;;;;8.44;90.06;99364.48;1757285;80;21513;-81
2022/12/22 15:36:53;;;;;;;16.77;6.17;;;;;;;8.43;89.96;99365.88;1767901;79;20987;-79
2022/12/22 15:39:22;;;;;;;7.47;3.60;;;;;;;8.43;89.93;99375.02;1750608;80;21093;-80
2022/12/22 15:41:49;;;;;;;9.60;3.43;;;;;;;8.42;89.90;99375.45;1768972;80;21042;-81
2022/12/22 15:44:17;;;;;;;13.47;5.97;;;;;;;8.40;89.88;99377.77;1761523;79;21082;-80
2022/12/22 15:46:55;;;;;;;11.83;5.93;;;;;;;8.39;89.96;99381.28;1755365;80;21022;-82
2022/12/22 15:49:26;;;;;;;7.50;3.90;;;;;;;8.39;89.95;99382.58;1736821;80;21063;-84